createdAt,value
2023-03-05T00:04:15.445Z,73.52
2023-03-05T00:09:19.546Z,73.75
2023-03-05T00:14:22.257Z,74.88
2023-03-05T00:19:24.989Z,73.92
2023-03-05T00:24:29.028Z,72.85
2023-03-05T00:29:32.037Z,73.38
2023-03-05T00:34:36.284Z,73.75
2023-03-05T00:39:40.357Z,73.31
2023-03-05T00:44:43.100Z,74.23
2023-03-05T00:49:46.687Z,73.64
2023-03-05T00:54:50.785Z,75.75
2023-03-05T00:59:53.498Z,75.76
2023-03-05T01:04:56.191Z,78.76
2023-03-05T01:10:00.251Z,78.86
2023-03-05T01:15:03.293Z,78.73
2023-03-05T01:20:07.608Z,79.93
2023-03-05T01:25:13.337Z,79.60
2023-03-05T01:30:16.784Z,80.28
2023-03-05T01:35:21.774Z,82.46
2023-03-05T01:40:28.498Z,80.33
2023-03-05T01:45:32.737Z,78.89
2023-03-05T01:50:36.133Z,80.25
2023-03-05T01:55:40.259Z,81.12
2023-03-05T02:00:46.808Z,79.98
2023-03-05T02:05:50.259Z,78.60
2023-03-05T02:10:56.475Z,79.06
2023-03-05T02:16:00.942Z,78.60
2023-03-05T02:21:06.781Z,79.47
2023-03-05T02:26:11.135Z,79.67
2023-03-05T02:31:16.490Z,78.61
2023-03-05T02:36:21.234Z,78.50
2023-03-05T02:41:25.160Z,78.19
2023-03-05T02:46:28.637Z,77.51
2023-03-05T02:51:32.954Z,79.92
2023-03-05T02:56:35.719Z,78.54
2023-03-05T03:01:38.625Z,77.88
2023-03-05T03:06:42.935Z,77.95
2023-03-05T03:11:45.625Z,78.48
2023-03-05T03:16:48.503Z,77.21
2023-03-05T03:21:54.902Z,76.37
2023-03-05T03:26:57.655Z,78.26
2023-03-05T03:32:00.750Z,80.53
2023-03-05T03:37:05.008Z,79.99
2023-03-05T03:42:08.181Z,79.84
2023-03-05T03:47:11.042Z,80.73
2023-03-05T03:52:15.209Z,81.45
2023-03-05T03:57:17.982Z,81.34
2023-03-05T04:02:20.981Z,81.55
2023-03-05T04:07:25.356Z,81.99
2023-03-05T04:12:28.110Z,81.12
2023-03-05T04:17:30.879Z,81.23
2023-03-05T04:22:35.037Z,80.82
2023-03-05T04:27:40.139Z,81.30
2023-03-05T04:32:43.102Z,81.30
2023-03-05T04:37:48.327Z,80.87
2023-03-05T04:42:51.094Z,79.59
2023-03-05T04:47:53.915Z,80.02
2023-03-05T04:52:58.132Z,79.70
2023-03-05T04:58:00.956Z,78.86
2023-03-05T05:03:03.946Z,78.70
2023-03-05T05:08:08.203Z,79.50
2023-03-05T05:13:11.018Z,78.33
2023-03-05T05:18:13.818Z,79.04
2023-03-05T05:23:18.752Z,79.74
2023-03-05T05:28:21.531Z,79.40
2023-03-05T05:33:24.777Z,79.21
2023-03-05T05:38:28.953Z,79.59
2023-03-05T05:43:31.988Z,80.26
2023-03-05T05:48:36.224Z,79.81
2023-03-05T05:53:40.522Z,79.11
2023-03-05T05:58:44.492Z,79.43
2023-03-05T06:03:47.816Z,80.86
2023-03-05T06:08:52.552Z,80.00
2023-03-05T06:13:55.324Z,82.52
2023-03-05T06:18:58.207Z,81.00
2023-03-05T06:24:02.296Z,82.92
2023-03-05T06:29:05.135Z,81.73
2023-03-05T06:34:07.948Z,80.63
2023-03-05T06:39:12.171Z,81.87
2023-03-05T06:44:14.939Z,83.17
2023-03-05T06:49:17.717Z,80.96
2023-03-05T06:54:21.869Z,80.94
2023-03-05T06:59:24.656Z,81.00
2023-03-05T07:04:27.519Z,81.90
2023-03-05T07:09:31.764Z,82.64
2023-03-05T07:14:34.529Z,84.83
2023-03-05T07:19:38.992Z,85.35
2023-03-05T07:24:43.153Z,86.02
2023-03-05T07:29:45.955Z,84.52
2023-03-05T07:34:48.690Z,84.98
2023-03-05T07:39:52.899Z,85.05
2023-03-05T07:44:55.675Z,85.38
2023-03-05T07:49:58.525Z,83.27
2023-03-05T07:55:02.725Z,84.41
2023-03-05T08:00:06.490Z,82.89
2023-03-05T08:05:14.677Z,82.72
2023-03-05T08:10:19.048Z,82.00
2023-03-05T08:15:21.975Z,81.10
2023-03-05T08:20:24.867Z,81.14
2023-03-05T08:25:29.350Z,80.52
2023-03-05T08:30:32.207Z,79.43
2023-03-05T08:35:35.061Z,78.03
2023-03-05T08:40:39.305Z,77.22
2023-03-05T08:45:42.080Z,76.73
2023-03-05T08:50:44.834Z,77.03
2023-03-05T08:55:56.416Z,76.13
2023-03-05T09:00:59.248Z,74.66
2023-03-05T09:06:03.192Z,73.91
2023-03-05T09:11:09.787Z,74.38
2023-03-05T09:16:15.368Z,75.74
2023-03-05T09:21:19.034Z,73.50
2023-03-05T09:26:23.156Z,73.98
2023-03-05T09:31:26.113Z,73.12
2023-03-05T09:36:30.765Z,73.25
2023-03-05T09:41:44.706Z,73.20
2023-03-05T09:46:54.806Z,70.15
2023-03-05T09:52:05.414Z,69.84
2023-03-05T09:57:17.344Z,70.54
2023-03-05T10:02:24.151Z,70.52
2023-03-05T10:07:31.025Z,76.53
2023-03-05T10:12:43.212Z,78.97
2023-03-05T10:18:02.841Z,79.77
2023-03-05T10:23:24.728Z,79.71
2023-03-05T10:28:36.937Z,79.23
2023-03-05T10:33:48.234Z,80.35
2023-03-05T10:39:06.427Z,79.63
2023-03-05T10:44:17.750Z,78.02
2023-03-05T10:49:22.833Z,71.58
2023-03-05T10:54:29.623Z,68.87
2023-03-05T10:59:34.320Z,66.44
2023-03-05T11:04:39.201Z,65.25
2023-03-05T11:09:42.410Z,63.66
2023-03-05T11:14:48.847Z,66.74
2023-03-05T11:19:51.850Z,69.12
2023-03-05T11:25:13.991Z,68.16
2023-03-05T11:30:25.732Z,65.48
2023-03-05T11:35:33.217Z,65.06
2023-03-05T11:40:36.773Z,64.76
2023-03-05T11:45:42.059Z,66.04
2023-03-05T11:50:48.589Z,65.27
2023-03-05T11:55:53.948Z,56.64
2023-03-05T12:00:58.942Z,52.49
2023-03-05T12:06:06.349Z,53.47
2023-03-05T12:11:16.884Z,52.40
2023-03-05T12:16:29.833Z,51.01
2023-03-05T12:21:37.621Z,51.73
2023-03-05T12:27:06.474Z,54.56
2023-03-05T12:32:43.019Z,56.02
2023-03-05T12:38:17.173Z,59.36
2023-03-05T12:43:31.940Z,57.31
2023-03-05T12:48:46.940Z,54.49
2023-03-05T12:53:53.221Z,56.23
2023-03-05T12:59:13.607Z,50.81
2023-03-05T13:04:21.150Z,56.01
2023-03-05T13:09:28.485Z,55.11
2023-03-05T13:14:36.069Z,49.81
2023-03-05T13:19:42.817Z,51.98
2023-03-05T13:24:47.196Z,51.92
2023-03-05T13:29:53.426Z,53.27
2023-03-05T13:34:58.989Z,51.22
2023-03-05T13:40:07.300Z,48.39
2023-03-05T13:45:27.755Z,48.18
2023-03-05T13:50:32.329Z,49.27
2023-03-05T13:55:36.512Z,47.28
2023-03-05T14:00:39.911Z,45.67
2023-03-05T14:05:44.491Z,45.09
2023-03-05T14:10:49.600Z,47.19
2023-03-05T14:16:06.154Z,45.48
2023-03-05T14:21:11.051Z,46.56
2023-03-05T14:26:40.032Z,46.02
2023-03-05T14:31:49.955Z,46.75
2023-03-05T14:36:54.749Z,48.21
2023-03-05T14:42:14.943Z,49.62
2023-03-05T14:47:17.709Z,50.16
2023-03-05T14:52:23.164Z,50.02
2023-03-05T14:57:29.898Z,51.93
2023-03-05T15:02:32.789Z,52.33
2023-03-05T15:07:35.820Z,54.00
2023-03-05T15:12:39.953Z,54.46
2023-03-05T15:17:44.585Z,54.57
2023-03-05T15:22:47.415Z,54.56
2023-03-05T15:27:52.048Z,54.28
2023-03-05T15:32:56.373Z,55.09
2023-03-05T15:37:59.569Z,53.83
2023-03-05T15:43:03.986Z,54.36
2023-03-05T15:48:07.324Z,55.30
2023-03-05T15:53:10.770Z,55.68
2023-03-05T15:58:17.531Z,54.95
2023-03-05T16:03:20.371Z,55.84
2023-03-05T16:08:23.148Z,55.45
2023-03-05T16:13:29.231Z,56.11
2023-03-05T16:18:33.563Z,55.65
2023-03-05T16:23:37.608Z,56.25
2023-03-05T16:28:41.849Z,55.72
2023-03-05T16:33:44.707Z,56.29
2023-03-05T16:38:49.146Z,56.44
2023-03-05T16:43:56.186Z,57.44
2023-03-05T16:48:59.689Z,56.90
2023-03-05T16:54:02.518Z,58.13
2023-03-05T16:59:06.718Z,56.82
2023-03-05T17:04:09.539Z,57.65
2023-03-05T17:09:12.377Z,57.27
2023-03-05T17:14:16.518Z,56.70
2023-03-05T17:19:19.576Z,57.03
2023-03-05T17:24:22.900Z,56.60
2023-03-05T17:29:27.134Z,57.13
2023-03-05T17:34:37.072Z,57.57
2023-03-05T17:39:40.422Z,56.81
2023-03-05T17:44:44.568Z,56.99
2023-03-05T17:49:47.431Z,56.75
2023-03-05T17:54:52.960Z,56.90
2023-03-05T17:59:57.069Z,56.56
2023-03-05T18:05:00.403Z,57.24
2023-03-05T18:10:04.177Z,57.31
2023-03-05T18:15:11.142Z,57.00
2023-03-05T18:20:25.453Z,58.94
2023-03-05T18:25:31.324Z,58.74
2023-03-05T18:30:42.070Z,58.59
2023-03-05T18:35:44.837Z,58.54
2023-03-05T18:40:48.036Z,59.60
2023-03-05T18:45:54.509Z,60.46
2023-03-05T18:50:57.359Z,60.23
2023-03-05T18:56:00.035Z,59.89
2023-03-05T19:01:04.196Z,59.99
2023-03-05T19:06:07.967Z,61.00
2023-03-05T19:11:17.352Z,61.56
2023-03-05T19:16:23.662Z,62.27
2023-03-05T19:21:26.684Z,64.34
2023-03-05T19:26:29.536Z,63.94
2023-03-05T19:31:33.885Z,63.71
2023-03-05T19:36:36.762Z,64.08
2023-03-05T19:41:39.830Z,63.86
2023-03-05T19:46:43.931Z,63.34
2023-03-05T19:51:47.396Z,62.92
2023-03-05T19:56:53.502Z,62.98
2023-03-05T20:01:58.369Z,63.11
2023-03-05T20:07:01.725Z,62.59
2023-03-05T20:12:05.615Z,62.52
2023-03-05T20:17:09.803Z,62.68
2023-03-05T20:22:12.609Z,62.62
2023-03-05T20:27:15.387Z,62.84
2023-03-05T20:32:19.571Z,62.80
2023-03-05T20:38:07.477Z,63.29
2023-03-05T20:43:13.051Z,62.37
2023-03-05T20:48:17.306Z,62.95
2023-03-05T20:53:20.614Z,62.73
2023-03-05T20:58:23.449Z,63.03
2023-03-05T21:03:27.584Z,62.95
2023-03-05T21:08:30.349Z,62.77
2023-03-05T21:13:33.155Z,62.30
2023-03-05T21:18:37.632Z,62.34
2023-03-05T21:23:40.645Z,63.70
2023-03-05T21:28:43.856Z,64.04
2023-03-05T21:33:48.150Z,63.51
2023-03-05T21:38:51.010Z,63.51
2023-03-05T21:43:53.744Z,63.84
2023-03-05T21:48:57.862Z,63.70
2023-03-05T21:54:00.619Z,63.73
2023-03-05T21:59:03.477Z,63.36
2023-03-05T22:04:07.811Z,63.87
2023-03-05T22:09:10.589Z,63.67
2023-03-05T22:14:14.068Z,64.04
2023-03-05T22:19:19.277Z,64.29
2023-03-05T22:24:24.977Z,64.28
2023-03-05T22:29:28.554Z,64.04
2023-03-05T22:34:32.852Z,64.39
2023-03-05T22:39:35.683Z,64.64
2023-03-05T22:44:38.580Z,64.73
2023-03-05T22:49:44.164Z,65.72
2023-03-05T22:54:47.942Z,65.60
2023-03-05T22:59:50.798Z,65.06
2023-03-05T23:04:57.591Z,64.82
2023-03-05T23:10:02.191Z,64.79
2023-03-05T23:15:08.350Z,65.25
2023-03-05T23:20:16.684Z,66.35
2023-03-05T23:25:20.118Z,67.58
2023-03-05T23:30:24.227Z,67.12
2023-03-05T23:35:30.448Z,66.96
2023-03-05T23:40:35.952Z,67.02
2023-03-05T23:45:38.782Z,67.09
2023-03-05T23:50:45.121Z,67.74
2023-03-05T23:55:49.184Z,68.54
